Italic G — IBYH — position and weather

sailwx.info

Track history (hours):
 
Tides and Currents Weather Stations Pressure Air Temp Water Temp Dewpoint Dewpoint Depression Visibility Wind Speed Wind Dir Waves Ship Positions

Italic G

Last reported at 2017-May-27 15:25 UTC. Time now 2017-Jun-27 10:44 UTC.
Position N 36°49' W 075°44'.
Warning: this ship's position is 30 days out of date.

Length 229 m; draft 14.2 m.

Type: Cargo ship. MMSI: 247282300.

Date/timePositionNaut miles runAvg speedWind from/ knotsBaromVisibWave heightAir tempDewpointWater temp
2017-May-27 15:25N 36°49' W 075°44'6 9.7
2017-May-27 14:50N 36°51' W 075°50'7 8.5
2017-May-27 14:00N 36°56' W 075°57'4 7.3
2017-May-27 13:30N 36°59' W 076°00'4 7.1
2017-May-27 13:00N 37°01' W 076°03'4 7.8
2017-May-27 12:30N 37°04' W 076°06'4 8.2
2017-May-27 12:00N 37°08' W 076°08'50 9.3
2017-May-27 06:40N 37°58' W 076°10'410.6
2017-May-27 06:17N 38°01' W 076°13'4811.6
2017-May-27 02:11N 38°48' W 076°25'212.2
2017-May-27 02:00N 38°50' W 076°24'612.2
2017-May-27 01:31N 38°56' W 076°23'5 9.3
2017-May-27 01:00N 39°01' W 076°23'4 7.8
2017-May-27 00:31N 39°04' W 076°24'4 7.8
2017-May-27 00:01N 39°08' W 076°24'4 7.1
2017-May-26 23:30N 39°11' W 076°27'4 7.2
2017-May-26 23:01N 39°13' W 076°31'3 6.5
2017-May-26 22:30N 39°15' W 076°34'0 0.4
2017-May-26 22:01N 39°15' W 076°34'0 0.0
2017-May-26 21:23N 39°15' W 076°34'0 0.0
2017-May-26 20:59N 39°15' W 076°34'0 0.0
2017-May-26 20:29N 39°15' W 076°34'0 0.0
2017-May-26 19:59N 39°15' W 076°34'0 0.0
2017-May-26 19:29N 39°15' W 076°34'0 0.0
2017-May-26 18:59N 39°15' W 076°34'0 0.0
2017-May-26 18:29N 39°15' W 076°34'0 0.0
2017-May-26 17:59N 39°15' W 076°34'0 0.0
2017-May-26 17:29N 39°15' W 076°34'0 0.0
2017-May-26 16:59N 39°15' W 076°34'0 0.0
2017-May-26 16:29N 39°15' W 076°34'0 0.0
2017-May-26 15:59N 39°15' W 076°34'0 0.0
2017-May-26 15:29N 39°15' W 076°34'0 0.0
2017-May-26 14:59N 39°15' W 076°34'0 0.0
2017-May-26 13:59N 39°15' W 076°34'0 0.0
2017-May-26 13:29N 39°15' W 076°34'0 0.0
2017-May-26 12:59N 39°15' W 076°34'0 0.0
2017-May-26 12:29N 39°15' W 076°34'0 0.0
2017-May-26 11:59N 39°15' W 076°34'0 0.0
2017-May-26 11:29N 39°15' W 076°34'0 0.0
2017-May-26 10:59N 39°15' W 076°34'0 0.0
2017-May-26 10:29N 39°15' W 076°34'0 0.0
2017-May-26 09:59N 39°15' W 076°34'0 0.0
2017-May-26 09:29N 39°15' W 076°34'0 0.0
2017-May-26 08:59N 39°15' W 076°34'0 0.0
2017-May-26 08:29N 39°15' W 076°34'0 0.0
2017-May-26 07:59N 39°15' W 076°34'0 0.0
2017-May-26 07:29N 39°15' W 076°34'0 0.0
2017-May-26 06:59N 39°15' W 076°34'0 0.0
2017-May-26 06:29N 39°15' W 076°34'0 0.0
2017-May-26 05:59N 39°15' W 076°34'0 0.0
2017-May-26 05:29N 39°15' W 076°34'0 0.0
2017-May-26 04:59N 39°15' W 076°34'0 0.0
2017-May-26 04:29N 39°15' W 076°34'0 0.0
2017-May-26 03:59N 39°15' W 076°34'0 0.0
2017-May-26 03:29N 39°15' W 076°34'0 0.0
2017-May-26 02:59N 39°15' W 076°34'0 0.0
2017-May-26 02:28N 39°15' W 076°34'0 0.0
2017-May-26 01:59N 39°15' W 076°34'0 0.0
2017-May-26 01:29N 39°15' W 076°34'0 0.0
2017-May-26 00:59N 39°15' W 076°34'0 0.0
2017-May-26 00:28N 39°15' W 076°34'0 0.0
2017-May-25 23:58N 39°15' W 076°34'0 0.0
2017-May-25 23:23N 39°15' W 076°34'0 0.0
2017-May-25 22:59N 39°15' W 076°34'0 0.0
2017-May-25 22:28N 39°15' W 076°34'0 0.0
2017-May-25 21:59N 39°15' W 076°34'0 0.0
2017-May-25 21:28N 39°15' W 076°34'0 0.0
2017-May-25 20:59N 39°15' W 076°34'0 0.0
2017-May-25 20:29N 39°15' W 076°34'0 0.0
2017-May-25 19:58N 39°15' W 076°34'0 0.0
2017-May-25 19:29N 39°15' W 076°34'0 0.0
2017-May-25 18:58N 39°15' W 076°34'0 0.0
2017-May-25 18:29N 39°15' W 076°34'0 0.0
2017-May-25 17:58N 39°15' W 076°34'0 0.0
2017-May-25 17:22N 39°15' W 076°34'0 0.0
2017-May-25 16:58N 39°15' W 076°34'0 0.0
2017-May-25 16:28N 39°15' W 076°34'0 0.0
2017-May-25 15:58N 39°15' W 076°34'0 0.0
2017-May-25 15:28N 39°15' W 076°34'0 0.0
2017-May-25 14:58N 39°15' W 076°34'0 0.0
2017-May-25 13:58N 39°15' W 076°34'0 0.0
2017-May-25 13:28N 39°15' W 076°34'0 0.0
2017-May-25 12:58N 39°15' W 076°34'0 0.0
2017-May-25 12:28N 39°15' W 076°34'0 0.0
2017-May-25 11:58N 39°15' W 076°34'0 0.0
2017-May-25 11:28N 39°15' W 076°34'0 0.0
2017-May-25 10:58N 39°15' W 076°34'0 0.0
2017-May-25 10:28N 39°15' W 076°34'0 0.0
2017-May-25 09:58N 39°15' W 076°34'0 0.0
2017-May-25 09:28N 39°15' W 076°34'0 0.0
2017-May-25 08:58N 39°15' W 076°34'0 0.0
2017-May-25 08:28N 39°15' W 076°34'0 0.0
2017-May-25 07:58N 39°15' W 076°34'0 0.0
2017-May-25 07:28N 39°15' W 076°34'0 0.0
2017-May-25 06:58N 39°15' W 076°34'0 0.0
2017-May-25 06:28N 39°15' W 076°34'0 0.0
2017-May-25 05:58N 39°15' W 076°34'0 0.0
2017-May-25 05:28N 39°15' W 076°34'0 0.0
2017-May-25 04:58N 39°15' W 076°34'0 0.0
2017-May-25 04:28N 39°15' W 076°34'0 0.0
2017-May-25 03:58N 39°15' W 076°34'0 0.0
2017-May-25 03:31N 39°15' W 076°34'1 1.1
2017-May-25 03:01N 39°15' W 076°34'3 5.3
2017-May-25 02:30N 39°13' W 076°32'510.1
2017-May-25 02:00N 39°10' W 076°26'611.6
2017-May-25 01:31N 39°05' W 076°24'612.3
2017-May-25 01:00N 38°59' W 076°23'713.0
2017-May-25 00:30N 38°52' W 076°24'4812.8
2017-May-24 20:47N 38°05' W 076°13'513.2
2017-May-24 20:23N 38°00' W 076°12'5612.0
2017-May-24 15:45N 37°05' W 076°06'412.9
2017-May-24 15:27N 37°02' W 076°03'612.3
2017-May-24 14:59N 36°57' W 075°59'5 9.8
2017-May-24 14:31N 36°55' W 075°54'1110.7
2017-May-24 13:30N 36°49' W 075°42'  
Track history (hours):
 
Tides and Currents Weather Stations Pressure Air Temp Water Temp Dewpoint Dewpoint Depression Visibility Wind Speed Wind Dir Waves Ship Positions

Italic G

Last reported at 2017-May-27 15:25 UTC. Time now 2017-Jun-27 10:44 UTC.
Position N 36°49' W 075°44'.
Warning: this ship's position is 30 days out of date.

Length 229 m; draft 14.2 m.

Type: Cargo ship. MMSI: 247282300.

Date/timePositionNaut miles runAvg speedWind from/ knotsBaromVisibWave heightAir tempDewpointWater temp
2017-May-27 15:25N 36°49' W 075°44'6 9.7
2017-May-27 14:50N 36°51' W 075°50'7 8.5
2017-May-27 14:00N 36°56' W 075°57'4 7.3
2017-May-27 13:30N 36°59' W 076°00'4 7.1
2017-May-27 13:00N 37°01' W 076°03'4 7.8
2017-May-27 12:30N 37°04' W 076°06'4 8.2
2017-May-27 12:00N 37°08' W 076°08'50 9.3
2017-May-27 06:40N 37°58' W 076°10'410.6
2017-May-27 06:17N 38°01' W 076°13'4811.6
2017-May-27 02:11N 38°48' W 076°25'212.2
2017-May-27 02:00N 38°50' W 076°24'612.2
2017-May-27 01:31N 38°56' W 076°23'5 9.3
2017-May-27 01:00N 39°01' W 076°23'4 7.8
2017-May-27 00:31N 39°04' W 076°24'4 7.8
2017-May-27 00:01N 39°08' W 076°24'4 7.1
2017-May-26 23:30N 39°11' W 076°27'4 7.2
2017-May-26 23:01N 39°13' W 076°31'3 6.5
2017-May-26 22:30N 39°15' W 076°34'0 0.4
2017-May-26 22:01N 39°15' W 076°34'0 0.0
2017-May-26 21:23N 39°15' W 076°34'0 0.0
2017-May-26 20:59N 39°15' W 076°34'0 0.0
2017-May-26 20:29N 39°15' W 076°34'0 0.0
2017-May-26 19:59N 39°15' W 076°34'0 0.0
2017-May-26 19:29N 39°15' W 076°34'0 0.0
2017-May-26 18:59N 39°15' W 076°34'0 0.0
2017-May-26 18:29N 39°15' W 076°34'0 0.0
2017-May-26 17:59N 39°15' W 076°34'0 0.0
2017-May-26 17:29N 39°15' W 076°34'0 0.0
2017-May-26 16:59N 39°15' W 076°34'0 0.0
2017-May-26 16:29N 39°15' W 076°34'0 0.0
2017-May-26 15:59N 39°15' W 076°34'0 0.0
2017-May-26 15:29N 39°15' W 076°34'0 0.0
2017-May-26 14:59N 39°15' W 076°34'0 0.0
2017-May-26 13:59N 39°15' W 076°34'0 0.0
2017-May-26 13:29N 39°15' W 076°34'0 0.0
2017-May-26 12:59N 39°15' W 076°34'0 0.0
2017-May-26 12:29N 39°15' W 076°34'0 0.0
2017-May-26 11:59N 39°15' W 076°34'0 0.0
2017-May-26 11:29N 39°15' W 076°34'0 0.0
2017-May-26 10:59N 39°15' W 076°34'0 0.0
2017-May-26 10:29N 39°15' W 076°34'0 0.0
2017-May-26 09:59N 39°15' W 076°34'0 0.0
2017-May-26 09:29N 39°15' W 076°34'0 0.0
2017-May-26 08:59N 39°15' W 076°34'0 0.0
2017-May-26 08:29N 39°15' W 076°34'0 0.0
2017-May-26 07:59N 39°15' W 076°34'0 0.0
2017-May-26 07:29N 39°15' W 076°34'0 0.0
2017-May-26 06:59N 39°15' W 076°34'0 0.0
2017-May-26 06:29N 39°15' W 076°34'0 0.0
2017-May-26 05:59N 39°15' W 076°34'0 0.0
2017-May-26 05:29N 39°15' W 076°34'0 0.0
2017-May-26 04:59N 39°15' W 076°34'0 0.0
2017-May-26 04:29N 39°15' W 076°34'0 0.0
2017-May-26 03:59N 39°15' W 076°34'0 0.0
2017-May-26 03:29N 39°15' W 076°34'0 0.0
2017-May-26 02:59N 39°15' W 076°34'0 0.0
2017-May-26 02:28N 39°15' W 076°34'0 0.0
2017-May-26 01:59N 39°15' W 076°34'0 0.0
2017-May-26 01:29N 39°15' W 076°34'0 0.0
2017-May-26 00:59N 39°15' W 076°34'0 0.0
2017-May-26 00:28N 39°15' W 076°34'0 0.0
2017-May-25 23:58N 39°15' W 076°34'0 0.0
2017-May-25 23:23N 39°15' W 076°34'0 0.0
2017-May-25 22:59N 39°15' W 076°34'0 0.0
2017-May-25 22:28N 39°15' W 076°34'0 0.0
2017-May-25 21:59N 39°15' W 076°34'0 0.0
2017-May-25 21:28N 39°15' W 076°34'0 0.0
2017-May-25 20:59N 39°15' W 076°34'0 0.0
2017-May-25 20:29N 39°15' W 076°34'0 0.0
2017-May-25 19:58N 39°15' W 076°34'0 0.0
2017-May-25 19:29N 39°15' W 076°34'0 0.0
2017-May-25 18:58N 39°15' W 076°34'0 0.0
2017-May-25 18:29N 39°15' W 076°34'0 0.0
2017-May-25 17:58N 39°15' W 076°34'0 0.0
2017-May-25 17:22N 39°15' W 076°34'0 0.0
2017-May-25 16:58N 39°15' W 076°34'0 0.0
2017-May-25 16:28N 39°15' W 076°34'0 0.0
2017-May-25 15:58N 39°15' W 076°34'0 0.0
2017-May-25 15:28N 39°15' W 076°34'0 0.0
2017-May-25 14:58N 39°15' W 076°34'0 0.0
2017-May-25 13:58N 39°15' W 076°34'0 0.0
2017-May-25 13:28N 39°15' W 076°34'0 0.0
2017-May-25 12:58N 39°15' W 076°34'0 0.0
2017-May-25 12:28N 39°15' W 076°34'0 0.0
2017-May-25 11:58N 39°15' W 076°34'0 0.0
2017-May-25 11:28N 39°15' W 076°34'0 0.0
2017-May-25 10:58N 39°15' W 076°34'0 0.0
2017-May-25 10:28N 39°15' W 076°34'0 0.0
2017-May-25 09:58N 39°15' W 076°34'0 0.0
2017-May-25 09:28N 39°15' W 076°34'0 0.0
2017-May-25 08:58N 39°15' W 076°34'0 0.0
2017-May-25 08:28N 39°15' W 076°34'0 0.0
2017-May-25 07:58N 39°15' W 076°34'0 0.0
2017-May-25 07:28N 39°15' W 076°34'0 0.0
2017-May-25 06:58N 39°15' W 076°34'0 0.0
2017-May-25 06:28N 39°15' W 076°34'0 0.0
2017-May-25 05:58N 39°15' W 076°34'0 0.0
2017-May-25 05:28N 39°15' W 076°34'0 0.0
2017-May-25 04:58N 39°15' W 076°34'0 0.0
2017-May-25 04:28N 39°15' W 076°34'0 0.0
2017-May-25 03:58N 39°15' W 076°34'0 0.0
2017-May-25 03:31N 39°15' W 076°34'1 1.1
2017-May-25 03:01N 39°15' W 076°34'3 5.3
2017-May-25 02:30N 39°13' W 076°32'510.1
2017-May-25 02:00N 39°10' W 076°26'611.6
2017-May-25 01:31N 39°05' W 076°24'612.3
2017-May-25 01:00N 38°59' W 076°23'713.0
2017-May-25 00:30N 38°52' W 076°24'4812.8
2017-May-24 20:47N 38°05' W 076°13'513.2
2017-May-24 20:23N 38°00' W 076°12'5612.0
2017-May-24 15:45N 37°05' W 076°06'412.9
2017-May-24 15:27N 37°02' W 076°03'612.3
2017-May-24 14:59N 36°57' W 075°59'5 9.8
2017-May-24 14:31N 36°55' W 075°54'1110.7
2017-May-24 13:30N 36°49' W 075°42'  

Dump ship's entire track history